Heather — 9HA2297 — position and weather

sailwx.info

Track history (hours):
 
Tides and Currents Weather Stations Pressure Air Temp Water Temp Dewpoint Dewpoint Depression Visibility Wind Speed Wind Dir Waves Ship Positions

Heather

Last reported at 2018-Apr-22 16:05 UTC. Time now 2018-Apr-23 15:13 UTC.
Position N 52°05' E 002°58'.

Length 124 m; draft 5.8 m.

Type: Ship. MMSI: 248280000.

Date/timePositionNaut miles runAvg speedWind from/ knotsBaromVisibWave heightAir tempDewpointWater temp
2018-Apr-22 16:05N 52°05' E 002°58'1 8.5
2018-Apr-22 15:59N 52°05' E 002°59'4 8.4
2018-Apr-22 15:30N 52°02' E 003°04'4 8.6
2018-Apr-22 15:00N 51°57' E 003°04'4 8.6
2018-Apr-22 14:30N 51°53' E 003°06'611.3
2018-Apr-22 13:59N 51°48' E 003°10'611.9
2018-Apr-22 13:30N 51°43' E 003°14'611.5
2018-Apr-22 13:00N 51°39' E 003°20'510.4
2018-Apr-22 12:30N 51°34' E 003°24'510.5
2018-Apr-22 12:00N 51°30' E 003°29'5 9.9
2018-Apr-22 11:30N 51°26' E 003°34'612.1
2018-Apr-22 11:00N 51°23' E 003°43'713.7
2018-Apr-22 10:30N 51°21' E 003°53'713.1
2018-Apr-22 10:00N 51°26' E 004°01'611.8
2018-Apr-22 09:30N 51°23' E 004°09'510.0
2018-Apr-22 09:00N 51°21' E 004°16'0 0.9
2018-Apr-22 08:31N 51°21' E 004°17'0 0.3
2018-Apr-22 08:00N 51°21' E 004°17'3 6.4
2018-Apr-22 07:30N 51°18' E 004°20'2 3.5
2018-Apr-22 06:59N 51°16' E 004°21'0 0.0
2018-Apr-22 06:17N 51°16' E 004°21'0 0.0
2018-Apr-22 05:59N 51°16' E 004°21'0 0.0
2018-Apr-22 05:26N 51°16' E 004°21'0 0.0
2018-Apr-22 04:59N 51°16' E 004°21'0 0.0
2018-Apr-22 04:23N 51°16' E 004°21'0 0.0
2018-Apr-22 03:59N 51°16' E 004°21'0 0.0
2018-Apr-22 03:29N 51°16' E 004°21'0 0.0
2018-Apr-22 02:59N 51°16' E 004°21'0 0.0
2018-Apr-22 02:23N 51°16' E 004°21'0 0.0
2018-Apr-22 01:59N 51°16' E 004°21'0 0.0
2018-Apr-22 01:29N 51°16' E 004°21'0 0.0
2018-Apr-22 00:59N 51°16' E 004°21'0 0.0
2018-Apr-22 00:29N 51°16' E 004°21'0 0.0
2018-Apr-21 23:56N 51°16' E 004°21'0 0.0
2018-Apr-21 23:29N 51°16' E 004°21'0 0.0
2018-Apr-21 22:47N 51°16' E 004°21'0 0.0
2018-Apr-21 22:29N 51°16' E 004°21'0 0.0
2018-Apr-21 21:50N 51°16' E 004°21'0 0.0
2018-Apr-21 21:29N 51°16' E 004°21'0 0.0
2018-Apr-21 20:56N 51°16' E 004°21'0 0.0
2018-Apr-21 20:29N 51°16' E 004°21'0 0.0
2018-Apr-21 19:56N 51°16' E 004°21'0 0.0
2018-Apr-21 19:29N 51°16' E 004°21'0 0.0
2018-Apr-21 18:59N 51°16' E 004°21'0 0.0
2018-Apr-21 18:23N 51°16' E 004°21'0 0.0
2018-Apr-21 17:59N 51°16' E 004°21'0 0.0
2018-Apr-21 17:29N 51°16' E 004°21'0 0.0
2018-Apr-21 16:59N 51°16' E 004°21'0 0.0
2018-Apr-21 16:26N 51°16' E 004°21'0 0.0
2018-Apr-21 15:59N 51°16' E 004°21'0 0.0
2018-Apr-21 15:29N 51°16' E 004°21'0 0.0
2018-Apr-21 14:56N 51°16' E 004°21'0 0.0
2018-Apr-21 14:29N 51°16' E 004°21'0 0.0
2018-Apr-21 13:59N 51°16' E 004°21'0 0.0
2018-Apr-21 13:29N 51°16' E 004°21'0 0.0
2018-Apr-21 12:56N 51°16' E 004°21'0 0.0
2018-Apr-21 12:26N 51°16' E 004°21'0 0.0
2018-Apr-21 11:59N 51°16' E 004°21'0 0.0
2018-Apr-21 11:29N 51°16' E 004°21'0 0.0
2018-Apr-21 10:50N 51°16' E 004°21'0 0.0
2018-Apr-21 10:29N 51°16' E 004°21'0 0.0
2018-Apr-21 09:59N 51°16' E 004°21'0 0.0
2018-Apr-21 09:29N 51°16' E 004°21'0 0.0
2018-Apr-21 08:56N 51°16' E 004°21'0 0.0
2018-Apr-21 08:02N 51°16' E 004°21'0 0.1
2018-Apr-21 07:59N 51°16' E 004°21'0 0.0
2018-Apr-21 07:29N 51°16' E 004°21'0 0.0
2018-Apr-21 06:59N 51°16' E 004°21'0 0.0
2018-Apr-21 06:26N 51°16' E 004°21'0 0.0
2018-Apr-21 05:50N 51°16' E 004°21'0 0.0
2018-Apr-21 05:29N 51°16' E 004°21'0 0.0
2018-Apr-21 04:59N 51°16' E 004°21'0 0.0
2018-Apr-21 04:29N 51°16' E 004°21'0 0.0
2018-Apr-21 03:59N 51°16' E 004°21'0 0.0
2018-Apr-21 03:29N 51°16' E 004°21'0 0.0
2018-Apr-21 02:59N 51°16' E 004°21'0 0.0
2018-Apr-21 02:29N 51°16' E 004°21'0 0.0
2018-Apr-21 01:56N 51°16' E 004°21'0 0.0
2018-Apr-21 01:31N 51°16' E 004°21'1 1.6
2018-Apr-21 01:00N 51°17' E 004°20'0 0.0
2018-Apr-21 00:30N 51°17' E 004°20'1 2.3
2018-Apr-21 00:00N 51°18' E 004°19'4 7.2
2018-Apr-20 23:29N 51°21' E 004°16'4 8.9
2018-Apr-20 23:00N 51°24' E 004°11'5 9.2
2018-Apr-20 22:30N 51°22' E 004°04'4 8.9
2018-Apr-20 22:00N 51°26' E 004°00'4 8.7
2018-Apr-20 21:30N 51°23' E 003°56'4 8.4
2018-Apr-20 21:01N 51°21' E 003°50'4 8.8
2018-Apr-20 20:30N 51°23' E 003°44'4 8.6
2018-Apr-20 20:00N 51°26' E 003°40'4 7.8
2018-Apr-20 19:30N 51°25' E 003°34'4 7.3
2018-Apr-20 19:00N 51°25' E 003°28'510.1
2018-Apr-20 18:30N 51°24' E 003°20'510.0
2018-Apr-20 18:00N 51°24' E 003°12'611.5
2018-Apr-20 17:29N 51°24' E 003°03'613.1
2018-Apr-20 17:00N 51°22' E 002°53'611.7
2018-Apr-20 16:29N 51°22' E 002°44'3 6.4
2018-Apr-20 16:00N 51°23' E 002°39'3 5.5
2018-Apr-20 15:28N 51°25' E 002°36'0 0.1
2018-Apr-20 15:00N 51°25' E 002°35'0 0.1
2018-Apr-20 14:30N 51°25' E 002°35'0 0.1
2018-Apr-20 13:57N 51°25' E 002°35'0 0.2
2018-Apr-20 13:30N 51°25' E 002°35'0 0.1
2018-Apr-20 12:57N 51°25' E 002°35'0 0.0
2018-Apr-20 12:27N 51°25' E 002°35'0 0.0
2018-Apr-20 12:00N 51°25' E 002°35'0 0.0
2018-Apr-20 11:30N 51°25' E 002°35'0 0.0
2018-Apr-20 10:54N 51°25' E 002°35'0 0.0
2018-Apr-20 10:30N 51°25' E 002°35'0 0.0
2018-Apr-20 10:00N 51°25' E 002°35'0 0.0
2018-Apr-20 09:27N 51°25' E 002°35'0 0.1
2018-Apr-20 08:57N 51°25' E 002°35'0 0.1
2018-Apr-20 08:27N 51°25' E 002°35'0 0.1
2018-Apr-20 08:00N 51°25' E 002°35'0 0.1
2018-Apr-20 07:21N 51°25' E 002°35'0 0.1
2018-Apr-20 07:00N 51°25' E 002°35'0 0.0
2018-Apr-20 06:30N 51°25' E 002°35'0 0.0
2018-Apr-20 05:54N 51°25' E 002°35'0 0.0
2018-Apr-20 05:21N 51°25' E 002°35'0 0.0
2018-Apr-20 05:00N 51°25' E 002°35'0 0.0
2018-Apr-20 04:27N 51°25' E 002°35'0 0.0
2018-Apr-20 04:00N 51°25' E 002°35'0 0.0
2018-Apr-20 03:27N 51°25' E 002°35'0 0.1
2018-Apr-20 03:00N 51°25' E 002°35'0 0.1
2018-Apr-20 02:30N 51°25' E 002°35'0 0.0
2018-Apr-20 02:00N 51°25' E 002°35'0 0.0
2018-Apr-20 01:30N 51°25' E 002°35'0 0.2
2018-Apr-20 01:00N 51°25' E 002°35'0 0.1
2018-Apr-20 00:27N 51°25' E 002°35'1 1.3
2018-Apr-19 23:58N 51°25' E 002°34'3 6.2
2018-Apr-19 23:30N 51°22' E 002°32'510.0
2018-Apr-19 22:59N 51°21' E 002°24'5 9.8
2018-Apr-19 22:30N 51°18' E 002°18'5 9.7
2018-Apr-19 21:57N 51°15' E 002°10'4 9.8
2018-Apr-19 21:30N 51°13' E 002°04'5 9.8
2018-Apr-19 21:00N 51°11' E 001°57'5 9.9
2018-Apr-19 20:30N 51°09' E 001°50'5 9.8
2018-Apr-19 20:00N 51°07' E 001°43'510.2
2018-Apr-19 19:30N 51°03' E 001°38'810.8
2018-Apr-19 18:49N 50°57' E 001°30'511.4
2018-Apr-19 18:20N 50°52' E 001°26'511.7
2018-Apr-19 17:57N 50°48' E 001°24'511.7
2018-Apr-19 17:30N 50°43' E 001°21'611.9
2018-Apr-19 17:00N 50°39' E 001°14'612.1
2018-Apr-19 16:30N 50°35' E 001°08'611.7
2018-Apr-19 15:59N 50°31' E 000°60'611.8
2018-Apr-19 15:28N 50°29' E 000°51'611.9
2018-Apr-19 14:57N 50°28' E 000°41'2112.1
2018-Apr-19 13:11N 50°21' E 000°09'312.4
2018-Apr-19 12:58N 50°21' E 000°05'613.0
2018-Apr-19 12:30N 50°21' W 000°04'713.7
2018-Apr-19 12:00N 50°19' W 000°14'1314.6
2018-Apr-19 11:08N 50°15' W 000°33'615.1
2018-Apr-19 10:46N 50°13' W 000°42'515.4
2018-Apr-19 10:25N 50°12' W 000°50'915.6
2018-Apr-19 09:49N 50°09' W 001°04'515.7
2018-Apr-19 09:29N 50°08' W 001°11'715.5
2018-Apr-19 09:01N 50°05' W 001°22'815.1
2018-Apr-19 08:31N 50°04' W 001°34'714.5
2018-Apr-19 08:01N 50°02' W 001°45'713.8
2018-Apr-19 07:30N 49°60' W 001°55'612.8
2018-Apr-19 07:00N 49°58' W 002°05'611.9
2018-Apr-19 06:30N 49°56' W 002°13'611.2
2018-Apr-19 05:59N 49°54' W 002°22'510.7
2018-Apr-19 05:29N 49°53' W 002°30'510.3
2018-Apr-19 05:00N 49°52' W 002°37'510.0
2018-Apr-19 04:30N 49°50' W 002°45'5 9.8
2018-Apr-19 04:00N 49°49' W 002°52'5 9.7
2018-Apr-19 03:30N 49°46' W 002°59'5 9.7
2018-Apr-19 03:00N 49°44' W 003°05'5 9.7
2018-Apr-19 02:30N 49°42' W 003°12'5 9.9
2018-Apr-19 02:00N 49°40' W 003°19'8411.5
2018-Apr-18 18:43N 48°58' W 005°10'1014.0
2018-Apr-18 17:59N 48°52' W 005°23'1414.0
2018-Apr-18 16:58N 48°42' W 005°38'1414.3
2018-Apr-18 15:58N 48°30' W 005°50'1413.9
2018-Apr-18 14:58N 48°19' W 006°01'1313.1
2018-Apr-18 13:58N 48°07' W 006°11'1312.5
2018-Apr-18 12:58N 47°56' W 006°20'53511.4
2018-Apr-16 14:03N 39°25' W 009°57'411.5
2018-Apr-16 13:43N 39°21' W 009°57'311.2
2018-Apr-16 13:29N 39°19' W 009°57'611.4
2018-Apr-16 13:00N 39°13' W 009°57'611.5
2018-Apr-16 12:30N 39°08' W 009°57'611.5
2018-Apr-16 12:00N 39°02' W 009°57'611.4
2018-Apr-16 11:30N 38°56' W 009°57'611.5
2018-Apr-16 11:00N 38°50' W 009°57'611.1
2018-Apr-16 10:30N 38°45' W 009°57'510.8
2018-Apr-16 10:00N 38°40' W 009°56'511.0
2018-Apr-16 09:31N 38°34' W 009°54'510.8
2018-Apr-16 09:00N 38°29' W 009°53'610.6
2018-Apr-16 08:28N 38°23' W 009°51'510.6
2018-Apr-16 07:58N 38°18' W 009°49'246 9.5
2018-Apr-15 06:01N 35°57' W 005°36'0 8.7
2018-Apr-15 05:59N 35°58' W 005°36'4 7.6
2018-Apr-15 05:30N 35°59' W 005°32'4 8.5
2018-Apr-15 05:00N 36°00' W 005°27'4 8.4
2018-Apr-15 04:30N 36°01' W 005°22'4 8.4
2018-Apr-15 04:00N 36°02' W 005°17'  
Track history (hours):
 
Tides and Currents Weather Stations Pressure Air Temp Water Temp Dewpoint Dewpoint Depression Visibility Wind Speed Wind Dir Waves Ship Positions

Heather

Last reported at 2018-Apr-22 16:05 UTC. Time now 2018-Apr-23 15:13 UTC.
Position N 52°05' E 002°58'.

Length 124 m; draft 5.8 m.

Type: Ship. MMSI: 248280000.

Date/timePositionNaut miles runAvg speedWind from/ knotsBaromVisibWave heightAir tempDewpointWater temp
2018-Apr-22 16:05N 52°05' E 002°58'1 8.5
2018-Apr-22 15:59N 52°05' E 002°59'4 8.4
2018-Apr-22 15:30N 52°02' E 003°04'4 8.6
2018-Apr-22 15:00N 51°57' E 003°04'4 8.6
2018-Apr-22 14:30N 51°53' E 003°06'611.3
2018-Apr-22 13:59N 51°48' E 003°10'611.9
2018-Apr-22 13:30N 51°43' E 003°14'611.5
2018-Apr-22 13:00N 51°39' E 003°20'510.4
2018-Apr-22 12:30N 51°34' E 003°24'510.5
2018-Apr-22 12:00N 51°30' E 003°29'5 9.9
2018-Apr-22 11:30N 51°26' E 003°34'612.1
2018-Apr-22 11:00N 51°23' E 003°43'713.7
2018-Apr-22 10:30N 51°21' E 003°53'713.1
2018-Apr-22 10:00N 51°26' E 004°01'611.8
2018-Apr-22 09:30N 51°23' E 004°09'510.0
2018-Apr-22 09:00N 51°21' E 004°16'0 0.9
2018-Apr-22 08:31N 51°21' E 004°17'0 0.3
2018-Apr-22 08:00N 51°21' E 004°17'3 6.4
2018-Apr-22 07:30N 51°18' E 004°20'2 3.5
2018-Apr-22 06:59N 51°16' E 004°21'0 0.0
2018-Apr-22 06:17N 51°16' E 004°21'0 0.0
2018-Apr-22 05:59N 51°16' E 004°21'0 0.0
2018-Apr-22 05:26N 51°16' E 004°21'0 0.0
2018-Apr-22 04:59N 51°16' E 004°21'0 0.0
2018-Apr-22 04:23N 51°16' E 004°21'0 0.0
2018-Apr-22 03:59N 51°16' E 004°21'0 0.0
2018-Apr-22 03:29N 51°16' E 004°21'0 0.0
2018-Apr-22 02:59N 51°16' E 004°21'0 0.0
2018-Apr-22 02:23N 51°16' E 004°21'0 0.0
2018-Apr-22 01:59N 51°16' E 004°21'0 0.0
2018-Apr-22 01:29N 51°16' E 004°21'0 0.0
2018-Apr-22 00:59N 51°16' E 004°21'0 0.0
2018-Apr-22 00:29N 51°16' E 004°21'0 0.0
2018-Apr-21 23:56N 51°16' E 004°21'0 0.0
2018-Apr-21 23:29N 51°16' E 004°21'0 0.0
2018-Apr-21 22:47N 51°16' E 004°21'0 0.0
2018-Apr-21 22:29N 51°16' E 004°21'0 0.0
2018-Apr-21 21:50N 51°16' E 004°21'0 0.0
2018-Apr-21 21:29N 51°16' E 004°21'0 0.0
2018-Apr-21 20:56N 51°16' E 004°21'0 0.0
2018-Apr-21 20:29N 51°16' E 004°21'0 0.0
2018-Apr-21 19:56N 51°16' E 004°21'0 0.0
2018-Apr-21 19:29N 51°16' E 004°21'0 0.0
2018-Apr-21 18:59N 51°16' E 004°21'0 0.0
2018-Apr-21 18:23N 51°16' E 004°21'0 0.0
2018-Apr-21 17:59N 51°16' E 004°21'0 0.0
2018-Apr-21 17:29N 51°16' E 004°21'0 0.0
2018-Apr-21 16:59N 51°16' E 004°21'0 0.0
2018-Apr-21 16:26N 51°16' E 004°21'0 0.0
2018-Apr-21 15:59N 51°16' E 004°21'0 0.0
2018-Apr-21 15:29N 51°16' E 004°21'0 0.0
2018-Apr-21 14:56N 51°16' E 004°21'0 0.0
2018-Apr-21 14:29N 51°16' E 004°21'0 0.0
2018-Apr-21 13:59N 51°16' E 004°21'0 0.0
2018-Apr-21 13:29N 51°16' E 004°21'0 0.0
2018-Apr-21 12:56N 51°16' E 004°21'0 0.0
2018-Apr-21 12:26N 51°16' E 004°21'0 0.0
2018-Apr-21 11:59N 51°16' E 004°21'0 0.0
2018-Apr-21 11:29N 51°16' E 004°21'0 0.0
2018-Apr-21 10:50N 51°16' E 004°21'0 0.0
2018-Apr-21 10:29N 51°16' E 004°21'0 0.0
2018-Apr-21 09:59N 51°16' E 004°21'0 0.0
2018-Apr-21 09:29N 51°16' E 004°21'0 0.0
2018-Apr-21 08:56N 51°16' E 004°21'0 0.0
2018-Apr-21 08:02N 51°16' E 004°21'0 0.1
2018-Apr-21 07:59N 51°16' E 004°21'0 0.0
2018-Apr-21 07:29N 51°16' E 004°21'0 0.0
2018-Apr-21 06:59N 51°16' E 004°21'0 0.0
2018-Apr-21 06:26N 51°16' E 004°21'0 0.0
2018-Apr-21 05:50N 51°16' E 004°21'0 0.0
2018-Apr-21 05:29N 51°16' E 004°21'0 0.0
2018-Apr-21 04:59N 51°16' E 004°21'0 0.0
2018-Apr-21 04:29N 51°16' E 004°21'0 0.0
2018-Apr-21 03:59N 51°16' E 004°21'0 0.0
2018-Apr-21 03:29N 51°16' E 004°21'0 0.0
2018-Apr-21 02:59N 51°16' E 004°21'0 0.0
2018-Apr-21 02:29N 51°16' E 004°21'0 0.0
2018-Apr-21 01:56N 51°16' E 004°21'0 0.0
2018-Apr-21 01:31N 51°16' E 004°21'1 1.6
2018-Apr-21 01:00N 51°17' E 004°20'0 0.0
2018-Apr-21 00:30N 51°17' E 004°20'1 2.3
2018-Apr-21 00:00N 51°18' E 004°19'4 7.2
2018-Apr-20 23:29N 51°21' E 004°16'4 8.9
2018-Apr-20 23:00N 51°24' E 004°11'5 9.2
2018-Apr-20 22:30N 51°22' E 004°04'4 8.9
2018-Apr-20 22:00N 51°26' E 004°00'4 8.7
2018-Apr-20 21:30N 51°23' E 003°56'4 8.4
2018-Apr-20 21:01N 51°21' E 003°50'4 8.8
2018-Apr-20 20:30N 51°23' E 003°44'4 8.6
2018-Apr-20 20:00N 51°26' E 003°40'4 7.8
2018-Apr-20 19:30N 51°25' E 003°34'4 7.3
2018-Apr-20 19:00N 51°25' E 003°28'510.1
2018-Apr-20 18:30N 51°24' E 003°20'510.0
2018-Apr-20 18:00N 51°24' E 003°12'611.5
2018-Apr-20 17:29N 51°24' E 003°03'613.1
2018-Apr-20 17:00N 51°22' E 002°53'611.7
2018-Apr-20 16:29N 51°22' E 002°44'3 6.4
2018-Apr-20 16:00N 51°23' E 002°39'3 5.5
2018-Apr-20 15:28N 51°25' E 002°36'0 0.1
2018-Apr-20 15:00N 51°25' E 002°35'0 0.1
2018-Apr-20 14:30N 51°25' E 002°35'0 0.1
2018-Apr-20 13:57N 51°25' E 002°35'0 0.2
2018-Apr-20 13:30N 51°25' E 002°35'0 0.1
2018-Apr-20 12:57N 51°25' E 002°35'0 0.0
2018-Apr-20 12:27N 51°25' E 002°35'0 0.0
2018-Apr-20 12:00N 51°25' E 002°35'0 0.0
2018-Apr-20 11:30N 51°25' E 002°35'0 0.0
2018-Apr-20 10:54N 51°25' E 002°35'0 0.0
2018-Apr-20 10:30N 51°25' E 002°35'0 0.0
2018-Apr-20 10:00N 51°25' E 002°35'0 0.0
2018-Apr-20 09:27N 51°25' E 002°35'0 0.1
2018-Apr-20 08:57N 51°25' E 002°35'0 0.1
2018-Apr-20 08:27N 51°25' E 002°35'0 0.1
2018-Apr-20 08:00N 51°25' E 002°35'0 0.1
2018-Apr-20 07:21N 51°25' E 002°35'0 0.1
2018-Apr-20 07:00N 51°25' E 002°35'0 0.0
2018-Apr-20 06:30N 51°25' E 002°35'0 0.0
2018-Apr-20 05:54N 51°25' E 002°35'0 0.0
2018-Apr-20 05:21N 51°25' E 002°35'0 0.0
2018-Apr-20 05:00N 51°25' E 002°35'0 0.0
2018-Apr-20 04:27N 51°25' E 002°35'0 0.0
2018-Apr-20 04:00N 51°25' E 002°35'0 0.0
2018-Apr-20 03:27N 51°25' E 002°35'0 0.1
2018-Apr-20 03:00N 51°25' E 002°35'0 0.1
2018-Apr-20 02:30N 51°25' E 002°35'0 0.0
2018-Apr-20 02:00N 51°25' E 002°35'0 0.0
2018-Apr-20 01:30N 51°25' E 002°35'0 0.2
2018-Apr-20 01:00N 51°25' E 002°35'0 0.1
2018-Apr-20 00:27N 51°25' E 002°35'1 1.3
2018-Apr-19 23:58N 51°25' E 002°34'3 6.2
2018-Apr-19 23:30N 51°22' E 002°32'510.0
2018-Apr-19 22:59N 51°21' E 002°24'5 9.8
2018-Apr-19 22:30N 51°18' E 002°18'5 9.7
2018-Apr-19 21:57N 51°15' E 002°10'4 9.8
2018-Apr-19 21:30N 51°13' E 002°04'5 9.8
2018-Apr-19 21:00N 51°11' E 001°57'5 9.9
2018-Apr-19 20:30N 51°09' E 001°50'5 9.8
2018-Apr-19 20:00N 51°07' E 001°43'510.2
2018-Apr-19 19:30N 51°03' E 001°38'810.8
2018-Apr-19 18:49N 50°57' E 001°30'511.4
2018-Apr-19 18:20N 50°52' E 001°26'511.7
2018-Apr-19 17:57N 50°48' E 001°24'511.7
2018-Apr-19 17:30N 50°43' E 001°21'611.9
2018-Apr-19 17:00N 50°39' E 001°14'612.1
2018-Apr-19 16:30N 50°35' E 001°08'611.7
2018-Apr-19 15:59N 50°31' E 000°60'611.8
2018-Apr-19 15:28N 50°29' E 000°51'611.9
2018-Apr-19 14:57N 50°28' E 000°41'2112.1
2018-Apr-19 13:11N 50°21' E 000°09'312.4
2018-Apr-19 12:58N 50°21' E 000°05'613.0
2018-Apr-19 12:30N 50°21' W 000°04'713.7
2018-Apr-19 12:00N 50°19' W 000°14'1314.6
2018-Apr-19 11:08N 50°15' W 000°33'615.1
2018-Apr-19 10:46N 50°13' W 000°42'515.4
2018-Apr-19 10:25N 50°12' W 000°50'915.6
2018-Apr-19 09:49N 50°09' W 001°04'515.7
2018-Apr-19 09:29N 50°08' W 001°11'715.5
2018-Apr-19 09:01N 50°05' W 001°22'815.1
2018-Apr-19 08:31N 50°04' W 001°34'714.5
2018-Apr-19 08:01N 50°02' W 001°45'713.8
2018-Apr-19 07:30N 49°60' W 001°55'612.8
2018-Apr-19 07:00N 49°58' W 002°05'611.9
2018-Apr-19 06:30N 49°56' W 002°13'611.2
2018-Apr-19 05:59N 49°54' W 002°22'510.7
2018-Apr-19 05:29N 49°53' W 002°30'510.3
2018-Apr-19 05:00N 49°52' W 002°37'510.0
2018-Apr-19 04:30N 49°50' W 002°45'5 9.8
2018-Apr-19 04:00N 49°49' W 002°52'5 9.7
2018-Apr-19 03:30N 49°46' W 002°59'5 9.7
2018-Apr-19 03:00N 49°44' W 003°05'5 9.7
2018-Apr-19 02:30N 49°42' W 003°12'5 9.9
2018-Apr-19 02:00N 49°40' W 003°19'8411.5
2018-Apr-18 18:43N 48°58' W 005°10'1014.0
2018-Apr-18 17:59N 48°52' W 005°23'1414.0
2018-Apr-18 16:58N 48°42' W 005°38'1414.3
2018-Apr-18 15:58N 48°30' W 005°50'1413.9
2018-Apr-18 14:58N 48°19' W 006°01'1313.1
2018-Apr-18 13:58N 48°07' W 006°11'1312.5
2018-Apr-18 12:58N 47°56' W 006°20'53511.4
2018-Apr-16 14:03N 39°25' W 009°57'411.5
2018-Apr-16 13:43N 39°21' W 009°57'311.2
2018-Apr-16 13:29N 39°19' W 009°57'611.4
2018-Apr-16 13:00N 39°13' W 009°57'611.5
2018-Apr-16 12:30N 39°08' W 009°57'611.5
2018-Apr-16 12:00N 39°02' W 009°57'611.4
2018-Apr-16 11:30N 38°56' W 009°57'611.5
2018-Apr-16 11:00N 38°50' W 009°57'611.1
2018-Apr-16 10:30N 38°45' W 009°57'510.8
2018-Apr-16 10:00N 38°40' W 009°56'511.0
2018-Apr-16 09:31N 38°34' W 009°54'510.8
2018-Apr-16 09:00N 38°29' W 009°53'610.6
2018-Apr-16 08:28N 38°23' W 009°51'510.6
2018-Apr-16 07:58N 38°18' W 009°49'246 9.5
2018-Apr-15 06:01N 35°57' W 005°36'0 8.7
2018-Apr-15 05:59N 35°58' W 005°36'4 7.6
2018-Apr-15 05:30N 35°59' W 005°32'4 8.5
2018-Apr-15 05:00N 36°00' W 005°27'4 8.4
2018-Apr-15 04:30N 36°01' W 005°22'4 8.4
2018-Apr-15 04:00N 36°02' W 005°17'  

Dump ship's entire track history